Time;durP1;ratioP1;P1;durP2;ratioP2;P2;SDS_P1;SDS_P2;PMS_P1;PMS_P2;Temp;Humidity;BMP_temperature;BMP_pressure;BME280_temperature;BME280_humidity;BME280_pressure;Samples;Min_cycle;Max_cycle;Signal;HPM_P1;HPM_P2
2022/12/22 03:26:01;;;;;;;81.72;31.83;;;1.10;99.90;;;;;;6250793;23;20048;-80
2022/12/22 03:38:22;;;;;;;76.88;27.95;;;1.10;99.90;;;;;;6274415;22;20030;-80
2022/12/22 03:40:52;;;;;;;82.75;28.55;;;1.20;99.90;;;;;;6267058;22;20027;-80
2022/12/22 03:48:36;;;;;;;70.40;29.58;;;1.10;99.90;;;;;;6255691;22;20085;-80
2022/12/22 03:51:04;;;;;;;72.60;28.33;;;1.00;99.90;;;;;;6229887;22;20050;-79
2022/12/22 03:53:31;;;;;;;73.97;28.23;;;0.90;99.90;;;;;;6238462;22;20015;-80
2022/12/22 03:55:58;;;;;;;77.93;27.85;;;1.10;99.90;;;;;;6236337;22;20011;-80
2022/12/22 03:58:33;;;;;;;78.43;31.20;;;0.20;99.90;;;;;;6240380;22;20034;-79
2022/12/22 04:01:07;;;;;;;83.50;30.00;;;1.20;99.90;;;;;;6237932;22;20058;-80
2022/12/22 04:03:35;;;;;;;85.05;34.63;;;1.10;99.90;;;;;;6229593;22;20021;-79
2022/12/22 04:06:02;;;;;;;84.35;32.30;;;1.10;99.90;;;;;;6255950;22;20015;-80
2022/12/22 04:08:29;;;;;;;80.35;35.10;;;1.10;99.90;;;;;;6267422;22;20023;-80
2022/12/22 04:13:42;;;;;;;76.30;32.03;;;1.20;99.90;;;;;;6276907;22;20016;-79
2022/12/22 04:37:08;;;;;;;91.18;33.20;;;1.10;99.90;;;;;;6226334;23;20016;-79
2022/12/22 04:39:43;;;;;;;87.60;31.05;;;1.10;99.90;;;;;;6223626;23;20099;-79
2022/12/22 04:42:10;;;;;;;91.40;33.33;;;1.10;99.90;;;;;;6199026;23;20040;-79
2022/12/22 04:44:37;;;;;;;87.85;32.00;;;1.10;99.90;;;;;;6224033;23;20020;-79
2022/12/22 04:47:05;;;;;;;92.10;29.55;;;1.10;99.90;;;;;;6222909;23;20035;-79
2022/12/22 04:49:32;;;;;;;80.07;31.92;;;1.10;99.90;;;;;;6224748;23;20043;-79
2022/12/22 04:55:16;;;;;;;82.47;32.90;;;1.10;99.90;;;;;;6266708;22;20054;-80
2022/12/22 04:57:44;;;;;;;87.72;31.35;;;1.10;99.90;;;;;;6230727;22;20418;-80
2022/12/22 05:00:11;;;;;;;83.78;33.30;;;1.10;99.90;;;;;;6256205;22;20458;-80
2022/12/22 05:02:39;;;;;;;84.32;30.67;;;0.50;99.90;;;;;;6255176;22;20016;-80
2022/12/22 05:05:07;;;;;;;79.40;30.92;;;1.10;99.90;;;;;;6261019;22;20019;-80
2022/12/22 05:07:35;;;;;;;84.95;29.85;;;1.30;99.90;;;;;;6233506;22;20042;-80
2022/12/22 05:10:04;;;;;;;89.13;31.90;;;1.10;99.90;;;;;;6238775;22;20016;-81
2022/12/22 05:15:23;;;;;;;80.47;30.20;;;1.10;99.90;;;;;;6261038;22;20022;-79
2022/12/22 05:17:52;;;;;;;100.78;38.55;;;1.10;99.90;;;;;;6236346;22;20038;-79
2022/12/22 05:20:20;;;;;;;83.10;32.40;;;1.10;99.90;;;;;;6234204;22;20035;-79
2022/12/22 05:22:48;;;;;;;157.55;56.05;;;1.00;99.90;;;;;;6263324;22;20012;-79
2022/12/22 05:25:16;;;;;;;95.65;38.03;;;1.50;99.90;;;;;;6240996;22;20359;-79
2022/12/22 05:27:44;;;;;;;85.57;31.95;;;1.20;99.90;;;;;;6264632;22;20034;-79
2022/12/22 05:30:13;;;;;;;85.22;32.08;;;1.10;99.90;;;;;;6238139;22;20007;-79
2022/12/22 05:32:41;;;;;;;126.80;44.13;;;1.30;99.90;;;;;;6234199;22;20047;-79
2022/12/22 05:35:09;;;;;;;79.43;33.05;;;1.10;99.90;;;;;;6232196;22;20020;-79
2022/12/22 05:37:37;;;;;;;95.00;33.53;;;1.60;99.90;;;;;;6228549;22;20485;-79
2022/12/22 05:40:06;;;;;;;98.25;37.15;;;1.00;99.90;;;;;;6229659;22;20413;-79
2022/12/22 05:42:36;;;;;;;89.70;32.70;;;0.10;99.90;;;;;;6224959;22;20016;-79
2022/12/22 05:45:11;;;;;;;82.38;31.65;;;1.00;99.90;;;;;;6251133;22;20020;-79
2022/12/22 05:47:39;;;;;;;105.68;40.47;;;1.30;99.90;;;;;;6231096;22;20537;-79
2022/12/22 05:50:07;;;;;;;125.80;45.10;;;1.00;99.90;;;;;;6257268;22;20070;-79
2022/12/22 05:52:35;;;;;;;180.50;68.30;;;1.10;99.90;;;;;;6232331;22;20054;-79
2022/12/22 05:55:04;;;;;;;273.63;108.50;;;1.10;99.90;;;;;;6230482;22;20024;-79
2022/12/22 05:57:35;;;;;;;203.23;80.78;;;1.20;99.90;;;;;;6233169;22;20016;-79
2022/12/22 06:00:08;;;;;;;113.13;42.70;;;1.10;99.90;;;;;;6234078;22;20015;-79
2022/12/22 06:02:39;;;;;;;109.50;40.78;;;1.10;99.90;;;;;;6235301;22;20095;-80
2022/12/22 06:05:08;;;;;;;124.00;43.28;;;1.00;99.90;;;;;;6232720;22;20023;-80
2022/12/22 06:07:35;;;;;;;130.30;48.88;;;1.00;99.90;;;;;;6232540;22;20042;-80
2022/12/22 06:10:07;;;;;;;98.72;36.80;;;1.20;99.90;;;;;;6258097;22;20020;-80
2022/12/22 06:12:41;;;;;;;103.30;37.33;;;1.00;99.90;;;;;;6232083;22;20019;-80
2022/12/22 06:15:12;;;;;;;84.60;31.75;;;1.00;99.90;;;;;;6233239;22;20026;-80
2022/12/22 06:17:40;;;;;;;70.82;30.02;;;1.00;99.90;;;;;;6258187;22;20016;-80
2022/12/22 06:20:12;;;;;;;83.43;31.85;;;1.10;99.90;;;;;;6230636;22;20078;-80
2022/12/22 06:22:39;;;;;;;88.75;32.13;;;1.10;99.90;;;;;;6229362;22;20050;-80
2022/12/22 06:25:07;;;;;;;97.00;30.80;;;1.00;99.90;;;;;;6249915;22;20382;-79
2022/12/22 06:27:43;;;;;;;90.55;33.08;;;1.10;99.90;;;;;;6230533;22;20043;-80
2022/12/22 06:30:13;;;;;;;98.20;32.13;;;1.10;99.90;;;;;;6284147;22;20019;-80
2022/12/22 06:32:41;;;;;;;89.15;31.60;;;1.00;99.90;;;;;;6232886;22;20049;-79
2022/12/22 06:35:10;;;;;;;91.82;34.80;;;1.00;99.90;;;;;;6231411;22;20019;-79
2022/12/22 06:37:38;;;;;;;84.85;32.42;;;1.10;99.90;;;;;;6226024;22;20079;-79
2022/12/22 06:40:07;;;;;;;91.03;32.10;;;1.10;99.90;;;;;;6231781;22;20020;-79
2022/12/22 06:45:20;;;;;;;92.65;32.25;;;1.00;99.90;;;;;;6260818;22;20075;-79
2022/12/22 06:47:48;;;;;;;94.35;32.67;;;1.10;99.90;;;;;;6259780;22;20118;-79
2022/12/22 06:50:16;;;;;;;100.60;36.22;;;1.00;99.90;;;;;;6231562;22;20069;-79
2022/12/22 06:52:43;;;;;;;102.93;35.88;;;1.10;99.90;;;;;;6232101;22;20019;-79
2022/12/22 06:55:11;;;;;;;87.68;33.90;;;1.10;99.90;;;;;;6253303;22;20076;-79
2022/12/22 06:57:39;;;;;;;87.78;31.38;;;1.10;99.90;;;;;;6226621;22;20024;-79
2022/12/22 07:00:08;;;;;;;88.32;31.77;;;1.30;99.90;;;;;;6225406;22;20732;-79
2022/12/22 07:02:36;;;;;;;82.93;31.25;;;1.10;99.90;;;;;;6223651;22;20123;-79
2022/12/22 07:05:04;;;;;;;85.13;32.90;;;1.20;99.90;;;;;;6223936;22;20418;-79
2022/12/22 07:07:31;;;;;;;92.97;30.77;;;1.20;99.90;;;;;;6248447;22;20042;-79
2022/12/22 07:10:01;;;;;;;123.00;41.22;;;1.20;99.90;;;;;;6246543;22;20073;-79
2022/12/22 07:12:28;;;;;;;126.53;48.15;;;1.20;99.90;;;;;;6224206;22;20042;-79
2022/12/22 07:14:56;;;;;;;103.57;37.80;;;1.20;99.90;;;;;;6223459;22;20092;-79
2022/12/22 07:17:24;;;;;;;97.55;33.85;;;1.20;99.90;;;;;;6248942;22;20394;-79
2022/12/22 07:19:51;;;;;;;99.80;36.03;;;1.30;99.90;;;;;;6249131;22;20015;-79
2022/12/22 07:22:19;;;;;;;103.40;36.00;;;1.30;99.90;;;;;;6224538;22;20027;-79
2022/12/22 07:24:55;;;;;;;88.38;33.83;;;1.40;99.90;;;;;;6252389;22;20061;-79
2022/12/22 07:27:23;;;;;;;99.35;37.65;;;1.50;99.90;;;;;;6247746;22;20027;-79
2022/12/22 07:29:50;;;;;;;119.40;44.85;;;1.40;99.90;;;;;;6251477;22;20069;-79
2022/12/22 07:32:17;;;;;;;130.23;49.30;;;1.40;99.90;;;;;;6222206;22;20046;-78
2022/12/22 07:34:45;;;;;;;107.65;41.10;;;1.40;99.90;;;;;;6248759;22;20461;-78
2022/12/22 07:37:12;;;;;;;109.75;39.85;;;1.50;99.90;;;;;;6220019;22;20026;-79
2022/12/22 07:39:40;;;;;;;106.75;40.35;;;1.50;99.90;;;;;;6246895;22;20027;-79
2022/12/22 07:44:56;;;;;;;99.25;39.53;;;1.50;99.90;;;;;;6275768;22;20094;-79
2022/12/22 07:47:23;;;;;;;112.53;41.47;;;1.50;99.90;;;;;;6221628;22;20026;-79
2022/12/22 07:52:44;;;;;;;79.72;29.35;;;1.40;99.90;;;;;;6247542;22;20110;-79
2022/12/22 07:55:12;;;;;;;77.05;28.23;;;2.30;99.90;;;;;;6222874;22;20024;-79
2022/12/22 07:57:40;;;;;;;116.07;41.15;;;1.50;99.90;;;;;;6219243;22;20020;-79
2022/12/22 08:00:09;;;;;;;96.32;37.10;;;1.50;99.90;;;;;;6222415;22;20466;-79
2022/12/22 08:02:40;;;;;;;96.03;35.17;;;1.50;99.90;;;;;;6224391;22;20029;-79
2022/12/22 08:05:08;;;;;;;121.50;45.75;;;1.50;99.90;;;;;;6250749;22;20015;-79
2022/12/22 08:07:36;;;;;;;131.38;48.20;;;1.50;99.90;;;;;;6223945;22;20015;-79
2022/12/22 08:10:04;;;;;;;109.13;40.35;;;0.70;99.90;;;;;;6246265;22;20026;-79
2022/12/22 08:12:31;;;;;;;91.05;35.20;;;2.00;99.90;;;;;;6244482;22;20386;-79
2022/12/22 08:14:59;;;;;;;83.65;30.63;;;1.50;99.90;;;;;;6220334;22;20102;-80
2022/12/22 08:17:27;;;;;;;86.07;31.27;;;0.70;99.90;;;;;;6221789;22;20027;-79
2022/12/22 08:19:55;;;;;;;79.63;30.67;;;1.60;99.90;;;;;;6221752;22;20011;-79
2022/12/22 08:22:23;;;;;;;85.18;29.75;;;1.50;99.90;;;;;;6246241;22;20455;-79
2022/12/22 08:24:52;;;;;;;84.95;31.23;;;1.60;99.90;;;;;;6247425;22;20099;-80
2022/12/22 08:27:30;;;;;;;79.65;30.48;;;1.50;99.90;;;;;;6247877;22;20030;-80
2022/12/22 08:30:00;;;;;;;78.78;29.83;;;1.60;99.90;;;;;;6222708;22;20035;-79
2022/12/22 08:32:27;;;;;;;99.72;34.03;;;1.60;99.90;;;;;;6221870;22;20019;-79
2022/12/22 08:34:55;;;;;;;93.60;35.63;;;1.60;99.90;;;;;;6221616;22;20375;-79
2022/12/22 08:37:25;;;;;;;91.68;34.67;;;1.60;99.90;;;;;;6212769;22;20058;-78
2022/12/22 08:39:57;;;;;;;98.78;38.88;;;1.70;99.90;;;;;;6243882;22;20630;-78
2022/12/22 08:42:25;;;;;;;91.93;33.13;;;1.70;99.90;;;;;;6221279;22;20401;-78
2022/12/22 08:44:52;;;;;;;83.00;32.13;;;1.70;99.90;;;;;;6245967;22;20556;-78
2022/12/22 08:47:20;;;;;;;98.63;32.45;;;1.80;99.90;;;;;;6223890;22;20027;-78
2022/12/22 08:49:48;;;;;;;84.80;32.53;;;1.80;99.90;;;;;;6222753;22;20022;-78
2022/12/22 08:52:16;;;;;;;94.30;34.67;;;1.80;99.90;;;;;;6247892;22;20016;-78
2022/12/22 08:54:45;;;;;;;91.95;35.15;;;1.90;99.90;;;;;;6241829;22;20106;-78
2022/12/22 08:57:12;;;;;;;93.10;35.97;;;1.80;99.90;;;;;;6270210;22;20030;-78
2022/12/22 08:59:40;;;;;;;92.15;35.45;;;1.90;99.90;;;;;;6240969;22;20019;-77
2022/12/22 09:02:07;;;;;;;95.15;34.90;;;1.90;99.90;;;;;;6240912;22;20028;-77
2022/12/22 09:04:35;;;;;;;96.63;35.33;;;1.90;99.90;;;;;;6218341;22;20053;-77
2022/12/22 09:07:02;;;;;;;88.38;32.88;;;1.90;99.90;;;;;;6244861;22;20023;-77
2022/12/22 09:09:33;;;;;;;85.28;34.47;;;1.90;99.90;;;;;;6244460;22;20020;-77
2022/12/22 09:12:01;;;;;;;92.22;37.05;;;1.90;99.90;;;;;;6221986;22;20046;-77
2022/12/22 09:14:29;;;;;;;89.97;34.28;;;1.90;99.90;;;;;;6273498;22;20023;-78
2022/12/22 09:16:56;;;;;;;102.57;38.75;;;2.00;99.90;;;;;;6245172;22;20024;-78
2022/12/22 09:19:24;;;;;;;96.47;34.13;;;2.00;99.90;;;;;;6245749;22;20075;-77
2022/12/22 09:21:51;;;;;;;88.32;33.45;;;1.90;99.90;;;;;;6273169;22;20555;-77
2022/12/22 09:24:18;;;;;;;81.97;30.63;;;2.00;99.90;;;;;;6221429;22;20764;-78
2022/12/22 09:26:45;;;;;;;94.50;31.73;;;2.00;99.90;;;;;;6247615;22;20046;-79
2022/12/22 09:29:14;;;;;;;83.38;32.00;;;2.00;99.90;;;;;;6223672;22;20026;-79
2022/12/22 09:31:42;;;;;;;94.10;36.45;;;2.00;99.90;;;;;;6245699;22;20135;-78
2022/12/22 09:34:09;;;;;;;89.65;33.15;;;2.00;99.90;;;;;;6223499;22;20024;-79
2022/12/22 09:36:44;;;;;;;128.82;44.67;;;2.10;99.90;;;;;;6244648;22;20019;-79
2022/12/22 09:39:11;;;;;;;96.72;36.40;;;2.10;99.90;;;;;;6215641;22;20015;-78
2022/12/22 09:41:43;;;;;;;92.60;34.25;;;2.10;99.90;;;;;;6236714;22;20136;-78
2022/12/22 09:44:25;;;;;;;104.30;37.88;;;2.20;99.90;;;;;;6237967;22;20022;-77
2022/12/22 09:46:56;;;;;;;114.93;41.58;;;2.20;99.90;;;;;;6240886;22;20024;-78
2022/12/22 09:49:24;;;;;;;120.45;44.42;;;2.20;99.90;;;;;;6215953;22;20027;-78
2022/12/22 09:52:00;;;;;;;103.50;37.08;;;2.30;99.90;;;;;;6241923;22;20561;-78
2022/12/22 09:54:29;;;;;;;113.40;39.80;;;2.30;99.90;;;;;;6267661;22;20570;-79
2022/12/22 09:56:56;;;;;;;122.45;40.97;;;2.20;99.90;;;;;;6242037;22;20038;-79
2022/12/22 09:59:27;;;;;;;114.63;40.65;;;2.20;99.90;;;;;;6219516;22;20020;-79
2022/12/22 10:02:20;;;;;;;110.50;40.92;;;2.40;99.90;;;;;;6245241;22;20044;-78
2022/12/22 10:05:05;;;;;;;95.90;35.45;;;2.40;99.90;;;;;;6244691;22;20026;-78
2022/12/22 10:07:38;;;;;;;127.95;41.90;;;2.40;99.90;;;;;;6220350;22;20015;-78
2022/12/22 10:10:16;;;;;;;116.90;37.80;;;2.50;99.90;;;;;;6218320;22;20348;-77
2022/12/22 10:12:43;;;;;;;99.40;35.13;;;2.50;99.90;;;;;;6245396;22;20067;-78
2022/12/22 10:15:11;;;;;;;94.18;33.55;;;2.50;99.90;;;;;;6272930;22;20015;-77
2022/12/22 10:17:50;;;;;;;105.78;39.17;;;2.50;99.90;;;;;;6218949;22;20031;-77
2022/12/22 10:20:20;;;;;;;82.10;32.28;;;2.50;99.90;;;;;;6245322;22;20389;-78
2022/12/22 10:22:52;;;;;;;91.72;34.60;;;2.50;99.90;;;;;;6221982;22;20027;-78
2022/12/22 10:25:41;;;;;;;90.25;34.38;;;2.50;99.90;;;;;;6247480;22;20035;-78
2022/12/22 10:28:35;;;;;;;101.15;37.05;;;2.50;99.90;;;;;;6274866;22;20035;-77
2022/12/22 10:31:29;;;;;;;93.30;35.83;;;2.50;99.90;;;;;;6222897;22;20047;-78
2022/12/22 10:34:14;;;;;;;100.82;37.53;;;2.50;99.90;;;;;;6221757;22;20726;-78
2022/12/22 10:36:49;;;;;;;83.32;31.30;;;2.60;99.90;;;;;;6216127;22;20046;-78
2022/12/22 10:39:29;;;;;;;100.22;33.42;;;2.70;99.90;;;;;;6212293;22;20557;-78
2022/12/22 10:42:08;;;;;;;96.45;35.92;;;2.70;99.90;;;;;;6215333;22;20729;-78
2022/12/22 10:44:37;;;;;;;87.20;32.05;;;2.80;99.90;;;;;;6269341;22;20016;-78
2022/12/22 10:47:23;;;;;;;71.55;25.63;;;2.90;99.90;;;;;;6245724;22;20440;-79
2022/12/22 10:49:56;;;;;;;93.32;32.88;;;2.90;99.90;;;;;;6245349;22;20026;-77
2022/12/22 10:52:25;;;;;;;98.47;34.03;;;2.90;99.90;;;;;;6219406;22;20087;-78
2022/12/22 10:55:15;;;;;;;85.55;34.00;;;3.00;99.90;;;;;;6219873;22;20455;-79
2022/12/22 10:57:42;;;;;;;89.15;31.40;;;3.00;99.90;;;;;;6218538;22;20682;-78
2022/12/22 11:00:30;;;;;;;63.42;21.98;;;3.00;99.90;;;;;;6220157;22;20351;-79
2022/12/22 11:03:00;;;;;;;86.03;29.70;;;3.00;99.90;;;;;;6220270;22;20447;-79
2022/12/22 11:05:28;;;;;;;91.57;33.90;;;3.00;99.90;;;;;;6248956;22;20090;-79
2022/12/22 11:07:59;;;;;;;79.03;29.48;;;3.10;99.90;;;;;;6222295;22;20447;-79
2022/12/22 11:10:29;;;;;;;89.70;33.78;;;3.10;99.90;;;;;;6273722;22;20880;-79
2022/12/22 11:13:08;;;;;;;83.25;32.50;;;3.10;99.90;;;;;;6245690;22;20050;-79
2022/12/22 11:15:54;;;;;;;102.22;35.05;;;3.10;99.90;;;;;;6248216;22;20022;-79
2022/12/22 11:18:28;;;;;;;105.88;33.20;;;3.10;99.90;;;;;;6248986;22;20019;-80
2022/12/22 11:21:06;;;;;;;106.88;37.17;;;3.10;99.90;;;;;;6245926;22;20026;-78
2022/12/22 11:24:00;;;;;;;94.75;36.28;;;3.10;99.90;;;;;;6247717;22;20394;-78
2022/12/22 11:26:44;;;;;;;82.30;31.90;;;3.00;99.90;;;;;;6248737;22;20061;-79
2022/12/22 11:29:34;;;;;;;70.78;28.75;;;3.00;99.90;;;;;;6218207;22;20510;-79
2022/12/22 11:32:07;;;;;;;79.32;31.48;;;3.10;99.90;;;;;;6272820;22;20764;-79
2022/12/22 11:34:55;;;;;;;88.22;32.28;;;3.10;99.90;;;;;;6247919;22;20084;-79
2022/12/22 11:37:41;;;;;;;88.40;33.13;;;3.20;99.90;;;;;;6244311;22;20410;-78
2022/12/22 11:40:27;;;;;;;77.93;29.88;;;3.30;99.90;;;;;;6248411;22;20057;-79
2022/12/22 11:43:24;;;;;;;74.50;30.58;;;3.30;99.90;;;;;;6246068;22;20020;-79
2022/12/22 11:46:22;;;;;;;78.45;30.52;;;3.30;99.90;;;;;;6246357;22;20020;-78
2022/12/22 11:48:52;;;;;;;72.30;29.23;;;3.30;99.90;;;;;;6247815;22;20026;-78
2022/12/22 11:51:41;;;;;;;74.90;26.83;;;3.40;99.90;;;;;;6248771;22;20020;-78
2022/12/22 11:54:14;;;;;;;92.28;33.38;;;3.50;99.90;;;;;;6248334;22;20055;-79
2022/12/22 11:56:46;;;;;;;;;;;3.50;99.90;;;;;;6249288;22;20443;-79
2022/12/22 11:59:24;;;;;;;93.82;36.33;;;3.50;99.90;;;;;;6219063;22;19919;-79
2022/12/22 12:01:57;;;;;;;74.88;27.85;;;3.50;99.90;;;;;;6222050;22;20085;-79
2022/12/22 12:05:06;;;;;;;79.05;30.20;;;3.40;99.90;;;;;;6246912;22;20024;-79
2022/12/22 12:07:39;;;;;;;85.75;31.10;;;3.40;99.90;;;;;;6247753;22;20032;-79
2022/12/22 12:10:24;;;;;;;85.47;32.55;;;3.30;99.90;;;;;;6244395;22;20054;-79
2022/12/22 12:13:02;;;;;;;74.65;30.73;;;3.40;99.90;;;;;;6221245;22;20058;-79
2022/12/22 12:15:31;;;;;;;90.47;34.05;;;3.30;99.90;;;;;;6245594;22;20077;-79
2022/12/22 12:18:25;;;;;;;78.22;32.17;;;3.40;99.90;;;;;;6247349;22;20020;-79
2022/12/22 12:21:21;;;;;;;80.78;31.60;;;3.40;99.90;;;;;;6220730;22;20016;-79
2022/12/22 12:23:54;;;;;;;78.10;31.05;;;3.40;99.90;;;;;;6247516;22;20517;-79
2022/12/22 12:26:27;;;;;;;94.75;33.80;;;3.40;99.90;;;;;;6246205;22;20019;-79
2022/12/22 12:29:15;;;;;;;79.55;32.15;;;3.30;99.90;;;;;;6246589;22;20469;-79
2022/12/22 12:31:53;;;;;;;75.72;30.10;;;3.30;99.90;;;;;;6222561;22;20015;-79
2022/12/22 12:34:21;;;;;;;81.00;32.70;;;3.20;99.90;;;;;;6248725;22;20061;-79
2022/12/22 12:36:55;;;;;;;74.93;28.88;;;3.20;99.90;;;;;;6219411;22;20062;-79
2022/12/22 12:39:40;;;;;;;86.55;31.88;;;3.30;99.90;;;;;;6270820;22;20046;-79
2022/12/22 12:42:24;;;;;;;99.95;44.47;;;3.20;99.90;;;;;;6243603;22;20019;-79
2022/12/22 12:44:53;;;;;;;88.57;37.40;;;3.20;99.90;;;;;;6219819;22;20024;-78
2022/12/22 12:47:21;;;;;;;74.97;31.20;;;3.20;99.90;;;;;;6222413;22;20097;-79
2022/12/22 12:50:02;;;;;;;73.13;28.13;;;3.20;99.90;;;;;;6247786;22;20022;-80
2022/12/22 12:53:18;;;;;;;80.47;32.55;;;3.20;99.90;;;;;;6247749;22;20038;-80
2022/12/22 12:55:49;;;;;;;81.10;27.98;;;3.20;99.90;;;;;;6244493;22;20031;-79
2022/12/22 12:58:34;;;;;;;72.40;26.90;;;3.20;99.90;;;;;;6246885;22;20099;-79
2022/12/22 13:01:23;;;;;;;77.07;29.25;;;3.30;99.90;;;;;;6247061;22;20022;-79
2022/12/22 13:03:50;;;;;;;80.22;28.55;;;3.30;99.90;;;;;;6147738;22;20022;-79
2022/12/22 13:06:45;;;;;;;73.55;28.08;;;3.30;99.90;;;;;;6224905;22;20020;-78
2022/12/22 13:09:31;;;;;;;76.82;27.52;;;3.20;99.90;;;;;;6245221;22;20026;-78
2022/12/22 13:12:48;;;;;;;75.63;27.83;;;3.20;99.90;;;;;;6223476;22;20018;-78
2022/12/22 13:15:31;;;;;;;80.75;30.02;;;3.20;99.90;;;;;;6222990;22;20030;-79
2022/12/22 13:18:01;;;;;;;77.38;31.00;;;3.30;99.90;;;;;;6247919;22;20011;-79
2022/12/22 13:20:34;;;;;;;69.35;27.85;;;3.40;99.90;;;;;;6247055;22;20081;-79
2022/12/22 13:23:03;;;;;;;112.97;36.40;;;3.40;99.90;;;;;;6246718;22;20012;-78
2022/12/22 13:25:47;;;;;;;91.32;29.90;;;3.50;99.90;;;;;;6221167;22;20102;-78
2022/12/22 13:28:16;;;;;;;77.47;28.73;;;3.50;99.90;;;;;;6221457;22;20098;-78
2022/12/22 13:30:56;;;;;;;84.03;31.42;;;3.60;99.90;;;;;;6221071;22;20024;-78
2022/12/22 13:33:29;;;;;;;94.43;37.28;;;3.60;99.90;;;;;;6246605;22;20043;-78
2022/12/22 13:35:57;;;;;;;77.82;29.75;;;3.60;99.90;;;;;;6220611;22;20073;-79
2022/12/22 13:38:33;;;;;;;87.90;33.22;;;3.60;99.90;;;;;;6219543;22;20062;-79
2022/12/22 13:41:15;;;;;;;80.88;29.27;;;3.60;99.90;;;;;;6242580;22;20015;-80
2022/12/22 13:43:57;;;;;;;85.78;30.50;;;3.50;99.90;;;;;;6270123;22;20403;-78
2022/12/22 13:46:25;;;;;;;78.80;30.40;;;3.50;99.90;;;;;;6270804;22;20447;-80
2022/12/22 13:48:55;;;;;;;83.78;32.13;;;3.40;99.90;;;;;;6243396;22;20347;-79
2022/12/22 13:51:26;;;;;;;79.60;32.40;;;3.40;99.90;;;;;;6243181;22;20024;-79
2022/12/22 13:54:10;;;;;;;89.43;32.80;;;3.40;99.90;;;;;;6243986;22;20074;-79
2022/12/22 13:56:50;;;;;;;87.15;34.05;;;3.30;99.90;;;;;;6246005;22;20030;-79
2022/12/22 13:59:33;;;;;;;87.40;32.25;;;3.30;99.90;;;;;;6220204;22;20022;-79
2022/12/22 14:02:08;;;;;;;76.95;30.05;;;3.30;99.90;;;;;;6219847;22;20015;-79
2022/12/22 14:04:37;;;;;;;81.97;32.17;;;3.20;99.90;;;;;;6248067;22;20508;-79
2022/12/22 14:07:12;;;;;;;88.57;30.75;;;3.20;99.90;;;;;;6218491;22;20074;-79
2022/12/22 14:09:48;;;;;;;87.43;33.70;;;3.10;99.90;;;;;;6246286;22;20023;-78
2022/12/22 14:12:22;;;;;;;102.57;40.70;;;3.20;99.90;;;;;;6221066;22;20024;-78
2022/12/22 14:14:52;;;;;;;89.85;37.25;;;3.20;99.90;;;;;;6223314;22;20027;-80
2022/12/22 14:17:28;;;;;;;90.35;34.97;;;3.10;99.90;;;;;;6221221;22;20100;-80
2022/12/22 14:20:00;;;;;;;102.38;37.63;;;3.10;99.90;;;;;;6221844;22;20022;-80
2022/12/22 14:22:33;;;;;;;90.68;33.05;;;3.10;99.90;;;;;;6226194;22;20038;-79
2022/12/22 14:25:18;;;;;;;83.45;31.80;;;3.10;99.90;;;;;;6251973;22;20012;-79
2022/12/22 14:27:53;;;;;;;88.80;34.75;;;3.10;99.90;;;;;;6251733;22;20403;-79
2022/12/22 14:30:35;;;;;;;94.35;34.00;;;3.10;99.90;;;;;;6254998;22;20023;-79
2022/12/22 14:33:26;;;;;;;83.43;32.00;;;3.10;99.90;;;;;;6262334;22;20034;-79
2022/12/22 14:36:20;;;;;;;89.55;32.60;;;3.10;99.90;;;;;;6231866;22;20354;-79
2022/12/22 14:38:53;;;;;;;89.25;34.47;;;3.00;99.90;;;;;;6238028;22;20031;-79
2022/12/22 14:41:40;;;;;;;108.07;40.15;;;3.00;99.90;;;;;;6276556;22;20435;-79
2022/12/22 14:44:27;;;;;;;125.88;44.03;;;3.00;99.90;;;;;;6221568;22;20386;-79
2022/12/22 14:47:03;;;;;;;157.00;54.40;;;3.00;99.90;;;;;;6243088;22;20019;-79
2022/12/22 14:49:30;;;;;;;121.13;42.30;;;3.00;99.90;;;;;;6220151;22;20131;-79
2022/12/22 14:52:05;;;;;;;108.68;40.63;;;3.00;99.90;;;;;;6225307;22;20020;-79
2022/12/22 14:54:33;;;;;;;201.90;83.55;;;2.90;99.90;;;;;;6223183;22;20035;-79
2022/12/22 14:57:09;;;;;;;107.10;38.08;;;2.90;99.90;;;;;;6223830;22;20019;-79
2022/12/22 14:59:58;;;;;;;122.97;44.33;;;2.80;99.90;;;;;;6249697;22;20386;-79
2022/12/22 15:02:36;;;;;;;118.18;47.80;;;2.90;99.90;;;;;;6229755;22;20122;-79
2022/12/22 15:05:08;;;;;;;113.57;46.80;;;2.80;99.90;;;;;;6232434;22;20043;-79
2022/12/22 15:07:49;;;;;;;132.35;48.80;;;2.80;99.90;;;;;;6255646;22;20089;-79
2022/12/22 15:10:43;;;;;;;144.82;54.15;;;2.80;99.90;;;;;;6225872;22;20435;-80
